sensor_id;sensor_type;location;lat;lon;timestamp;pressure;altitude;pressure_sealevel;temperature;humidity
39301;BME280;25019;42.626;23.380;2024-02-26T00:01:41;93808.88;;;5.54;100.00
39301;BME280;25019;42.626;23.380;2024-02-26T00:04:09;93690.56;;;4.76;100.00
39301;BME280;25019;42.626;23.380;2024-02-26T00:06:36;93734.28;;;5.13;100.00
39301;BME280;25019;42.626;23.380;2024-02-26T00:09:02;93825.09;;;5.75;100.00
39301;BME280;25019;42.626;23.380;2024-02-26T00:11:31;93839.53;;;5.84;100.00
39301;BME280;25019;42.626;23.380;2024-02-26T00:13:57;93912.34;;;6.38;100.00
39301;BME280;25019;42.626;23.380;2024-02-26T00:16:26;94002.22;;;7.01;100.00
39301;BME280;25019;42.626;23.380;2024-02-26T00:18:52;93953.88;;;6.71;100.00
39301;BME280;25019;42.626;23.380;2024-02-26T00:21:18;93877.63;;;6.29;100.00
39301;BME280;25019;42.626;23.380;2024-02-26T00:26:26;93903.34;;;6.51;100.00
39301;BME280;25019;42.626;23.380;2024-02-26T00:28:55;93995.25;;;7.24;100.00
39301;BME280;25019;42.626;23.380;2024-02-26T00:31:22;93999.56;;;7.30;100.00
39301;BME280;25019;42.626;23.380;2024-02-26T00:33:53;93820.06;;;6.26;100.00
39301;BME280;25019;42.626;23.380;2024-02-26T00:36:20;93982.06;;;7.41;100.00
39301;BME280;25019;42.626;23.380;2024-02-26T00:38:48;93931.88;;;6.95;100.00
39301;BME280;25019;42.626;23.380;2024-02-26T00:41:17;93941.91;;;7.10;100.00
39301;BME280;25019;42.626;23.380;2024-02-26T00:43:44;93818.44;;;6.37;100.00
39301;BME280;25019;42.626;23.380;2024-02-26T00:46:10;93902.84;;;6.95;100.00
39301;BME280;25019;42.626;23.380;2024-02-26T00:48:36;93911.25;;;7.09;100.00
39301;BME280;25019;42.626;23.380;2024-02-26T00:51:03;93965.72;;;7.44;100.00
39301;BME280;25019;42.626;23.380;2024-02-26T00:53:31;93967.44;;;7.50;100.00
39301;BME280;25019;42.626;23.380;2024-02-26T00:55:57;93933.38;;;7.37;100.00
39301;BME280;25019;42.626;23.380;2024-02-26T00:58:27;93891.81;;;7.15;100.00
39301;BME280;25019;42.626;23.380;2024-02-26T01:00:53;93843.63;;;6.90;100.00
39301;BME280;25019;42.626;23.380;2024-02-26T01:03:19;93956.34;;;7.70;100.00
39301;BME280;25019;42.626;23.380;2024-02-26T01:05:45;93838.13;;;6.92;100.00
39301;BME280;25019;42.626;23.380;2024-02-26T01:08:11;93866.75;;;7.17;100.00
39301;BME280;25019;42.626;23.380;2024-02-26T01:10:36;93819.16;;;6.78;100.00
39301;BME280;25019;42.626;23.380;2024-02-26T01:13:02;93951.41;;;7.74;100.00
39301;BME280;25019;42.626;23.380;2024-02-26T01:15:28;93887.59;;;7.31;100.00
39301;BME280;25019;42.626;23.380;2024-02-26T01:17:54;93869.56;;;7.11;100.00
39301;BME280;25019;42.626;23.380;2024-02-26T01:20:20;93883.75;;;7.22;100.00
39301;BME280;25019;42.626;23.380;2024-02-26T01:22:46;93853.81;;;6.99;100.00
39301;BME280;25019;42.626;23.380;2024-02-26T01:25:12;93817.78;;;6.75;100.00
39301;BME280;25019;42.626;23.380;2024-02-26T01:27:39;93910.72;;;7.41;100.00
39301;BME280;25019;42.626;23.380;2024-02-26T01:30:07;93957.91;;;7.66;100.00
39301;BME280;25019;42.626;23.380;2024-02-26T01:32:32;93859.75;;;7.06;100.00
39301;BME280;25019;42.626;23.380;2024-02-26T01:34:58;93946.81;;;7.69;100.00
39301;BME280;25019;42.626;23.380;2024-02-26T01:37:24;93857.78;;;7.01;100.00
39301;BME280;25019;42.626;23.380;2024-02-26T01:39:50;93926.00;;;7.39;100.00
39301;BME280;25019;42.626;23.380;2024-02-26T01:42:18;93948.50;;;7.41;100.00
39301;BME280;25019;42.626;23.380;2024-02-26T01:44:44;93916.00;;;7.24;100.00
39301;BME280;25019;42.626;23.380;2024-02-26T01:47:11;93857.38;;;6.93;100.00
39301;BME280;25019;42.626;23.380;2024-02-26T01:49:39;93867.72;;;6.94;100.00
39301;BME280;25019;42.626;23.380;2024-02-26T01:52:06;93890.38;;;7.07;100.00
39301;BME280;25019;42.626;23.380;2024-02-26T01:54:37;93883.97;;;7.03;100.00
39301;BME280;25019;42.626;23.380;2024-02-26T01:57:05;93830.94;;;6.58;100.00
39301;BME280;25019;42.626;23.380;2024-02-26T01:59:32;93773.19;;;6.28;100.00
39301;BME280;25019;42.626;23.380;2024-02-26T02:02:01;93816.78;;;6.48;100.00
39301;BME280;25019;42.626;23.380;2024-02-26T02:04:29;93760.00;;;6.28;100.00
39301;BME280;25019;42.626;23.380;2024-02-26T02:06:55;93807.53;;;6.62;100.00
39301;BME280;25019;42.626;23.380;2024-02-26T02:09:23;93900.72;;;7.26;100.00
39301;BME280;25019;42.626;23.380;2024-02-26T02:11:50;93931.88;;;7.41;100.00
39301;BME280;25019;42.626;23.380;2024-02-26T02:14:16;93798.97;;;6.55;100.00
39301;BME280;25019;42.626;23.380;2024-02-26T02:16:42;93650.78;;;5.66;100.00
39301;BME280;25019;42.626;23.380;2024-02-26T02:19:07;93662.69;;;5.68;100.00
39301;BME280;25019;42.626;23.380;2024-02-26T02:21:33;93936.41;;;7.45;100.00
39301;BME280;25019;42.626;23.380;2024-02-26T02:23:59;93931.38;;;7.44;100.00
39301;BME280;25019;42.626;23.380;2024-02-26T02:26:25;93875.25;;;7.02;100.00
39301;BME280;25019;42.626;23.380;2024-02-26T02:28:51;93863.06;;;7.01;100.00
39301;BME280;25019;42.626;23.380;2024-02-26T02:31:17;93830.13;;;6.87;100.00
39301;BME280;25019;42.626;23.380;2024-02-26T02:33:43;93941.56;;;7.52;100.00
39301;BME280;25019;42.626;23.380;2024-02-26T02:36:09;93783.75;;;6.45;100.00
39301;BME280;25019;42.626;23.380;2024-02-26T02:38:48;93946.50;;;7.48;100.00
39301;BME280;25019;42.626;23.380;2024-02-26T02:41:16;93771.75;;;6.37;100.00
39301;BME280;25019;42.626;23.380;2024-02-26T02:43:41;93901.75;;;7.25;100.00
39301;BME280;25019;42.626;23.380;2024-02-26T02:46:07;93913.59;;;7.22;100.00
39301;BME280;25019;42.626;23.380;2024-02-26T02:48:33;93890.38;;;7.07;100.00
39301;BME280;25019;42.626;23.380;2024-02-26T02:51:01;93831.59;;;6.66;100.00
39301;BME280;25019;42.626;23.380;2024-02-26T02:53:27;93798.66;;;6.51;100.00
39301;BME280;25019;42.626;23.380;2024-02-26T02:55:52;93880.53;;;7.02;100.00
39301;BME280;25019;42.626;23.380;2024-02-26T02:58:18;93925.06;;;7.28;100.00
39301;BME280;25019;42.626;23.380;2024-02-26T03:00:44;93818.41;;;6.66;100.00
39301;BME280;25019;42.626;23.380;2024-02-26T03:03:10;93872.44;;;6.92;100.00
39301;BME280;25019;42.626;23.380;2024-02-26T03:05:36;93949.88;;;7.44;100.00
39301;BME280;25019;42.626;23.380;2024-02-26T03:08:02;93828.66;;;6.62;100.00
39301;BME280;25019;42.626;23.380;2024-02-26T03:10:28;93869.25;;;6.90;100.00
39301;BME280;25019;42.626;23.380;2024-02-26T03:12:54;93922.00;;;7.19;100.00
39301;BME280;25019;42.626;23.380;2024-02-26T03:15:20;93881.34;;;7.03;100.00
39301;BME280;25019;42.626;23.380;2024-02-26T03:17:46;93834.34;;;6.71;100.00
39301;BME280;25019;42.626;23.380;2024-02-26T03:20:12;93902.38;;;7.15;100.00
39301;BME280;25019;42.626;23.380;2024-02-26T03:22:39;93905.13;;;7.20;100.00
39301;BME280;25019;42.626;23.380;2024-02-26T03:25:06;93793.50;;;6.44;100.00
39301;BME280;25019;42.626;23.380;2024-02-26T03:27:32;93797.00;;;6.33;100.00
39301;BME280;25019;42.626;23.380;2024-02-26T03:29:58;93944.97;;;7.18;100.00
39301;BME280;25019;42.626;23.380;2024-02-26T03:32:24;93861.28;;;6.73;100.00
39301;BME280;25019;42.626;23.380;2024-02-26T03:34:50;93838.63;;;6.60;100.00
39301;BME280;25019;42.626;23.380;2024-02-26T03:37:19;93805.50;;;6.35;100.00
39301;BME280;25019;42.626;23.380;2024-02-26T03:39:45;93868.25;;;6.79;100.00
39301;BME280;25019;42.626;23.380;2024-02-26T03:42:11;93833.56;;;6.58;100.00
39301;BME280;25019;42.626;23.380;2024-02-26T03:44:37;93868.25;;;6.79;100.00
39301;BME280;25019;42.626;23.380;2024-02-26T03:47:03;93903.66;;;7.12;100.00
39301;BME280;25019;42.626;23.380;2024-02-26T03:49:28;93829.78;;;6.66;100.00
39301;BME280;25019;42.626;23.380;2024-02-26T03:51:54;93845.69;;;6.71;100.00
39301;BME280;25019;42.626;23.380;2024-02-26T03:54:20;93817.69;;;6.53;100.00
39301;BME280;25019;42.626;23.380;2024-02-26T03:56:46;93856.78;;;6.73;100.00
39301;BME280;25019;42.626;23.380;2024-02-26T03:59:12;93925.22;;;7.21;100.00
39301;BME280;25019;42.626;23.380;2024-02-26T04:01:37;93910.28;;;6.98;100.00
39301;BME280;25019;42.626;23.380;2024-02-26T04:04:04;93814.38;;;6.46;100.00
39301;BME280;25019;42.626;23.380;2024-02-26T04:06:29;93815.88;;;6.42;100.00
39301;BME280;25019;42.626;23.380;2024-02-26T04:08:56;93909.34;;;7.04;100.00
39301;BME280;25019;42.626;23.380;2024-02-26T04:11:22;93887.56;;;6.97;100.00
39301;BME280;25019;42.626;23.380;2024-02-26T04:13:48;93833.91;;;6.62;100.00
39301;BME280;25019;42.626;23.380;2024-02-26T04:16:17;93857.78;;;6.84;100.00
39301;BME280;25019;42.626;23.380;2024-02-26T04:18:44;93844.31;;;6.69;100.00
39301;BME280;25019;42.626;23.380;2024-02-26T04:21:10;93909.03;;;7.17;100.00
39301;BME280;25019;42.626;23.380;2024-02-26T04:23:36;93839.13;;;6.74;100.00
39301;BME280;25019;42.626;23.380;2024-02-26T04:26:05;93894.63;;;7.08;100.00
39301;BME280;25019;42.626;23.380;2024-02-26T04:28:35;93832.81;;;6.75;100.00
39301;BME280;25019;42.626;23.380;2024-02-26T04:31:02;93846.25;;;6.73;100.00
39301;BME280;25019;42.626;23.380;2024-02-26T04:33:27;93713.69;;;5.91;100.00
39301;BME280;25019;42.626;23.380;2024-02-26T04:35:53;93907.31;;;7.11;100.00
39301;BME280;25019;42.626;23.380;2024-02-26T04:38:19;93740.16;;;5.96;100.00
39301;BME280;25019;42.626;23.380;2024-02-26T04:40:45;93840.34;;;6.66;100.00
39301;BME280;25019;42.626;23.380;2024-02-26T04:43:10;93845.59;;;6.66;100.00
39301;BME280;25019;42.626;23.380;2024-02-26T04:45:36;93910.22;;;7.10;100.00
39301;BME280;25019;42.626;23.380;2024-02-26T04:48:02;93910.13;;;7.04;100.00
39301;BME280;25019;42.626;23.380;2024-02-26T04:50:28;93816.41;;;6.27;100.00
39301;BME280;25019;42.626;23.380;2024-02-26T04:52:54;93845.16;;;6.40;100.00
39301;BME280;25019;42.626;23.380;2024-02-26T04:55:20;93891.91;;;6.74;100.00
39301;BME280;25019;42.626;23.380;2024-02-26T04:57:45;93730.75;;;5.60;100.00
39301;BME280;25019;42.626;23.380;2024-02-26T05:00:12;93869.41;;;6.25;100.00
39301;BME280;25019;42.626;23.380;2024-02-26T05:02:38;93860.94;;;6.11;100.00
39301;BME280;25019;42.626;23.380;2024-02-26T05:05:07;93815.81;;;5.84;100.00
39301;BME280;25019;42.626;23.380;2024-02-26T05:07:39;93855.78;;;6.05;100.00
39301;BME280;25019;42.626;23.380;2024-02-26T05:10:05;93845.09;;;5.99;100.00
39301;BME280;25019;42.626;23.380;2024-02-26T05:12:31;93852.56;;;6.03;100.00
39301;BME280;25019;42.626;23.380;2024-02-26T05:14:57;93947.75;;;6.54;100.00
39301;BME280;25019;42.626;23.380;2024-02-26T05:17:23;93949.25;;;6.50;100.00
39301;BME280;25019;42.626;23.380;2024-02-26T05:19:49;93935.50;;;6.36;100.00
39301;BME280;25019;42.626;23.380;2024-02-26T05:22:15;93870.09;;;5.97;100.00
39301;BME280;25019;42.626;23.380;2024-02-26T05:24:42;93885.31;;;6.19;100.00
39301;BME280;25019;42.626;23.380;2024-02-26T05:27:08;93913.28;;;6.32;100.00
39301;BME280;25019;42.626;23.380;2024-02-26T05:29:33;93854.06;;;5.98;100.00
39301;BME280;25019;42.626;23.380;2024-02-26T05:31:59;93865.75;;;6.03;100.00
39301;BME280;25019;42.626;23.380;2024-02-26T05:34:25;93948.16;;;6.63;100.00
39301;BME280;25019;42.626;23.380;2024-02-26T05:36:51;93940.28;;;6.51;100.00
39301;BME280;25019;42.626;23.380;2024-02-26T05:39:16;93968.03;;;6.65;100.00
39301;BME280;25019;42.626;23.380;2024-02-26T05:41:42;93835.41;;;5.88;100.00
39301;BME280;25019;42.626;23.380;2024-02-26T05:44:09;93918.50;;;6.43;100.00
39301;BME280;25019;42.626;23.380;2024-02-26T05:46:37;93901.69;;;6.33;100.00
39301;BME280;25019;42.626;23.380;2024-02-26T05:49:03;93976.75;;;6.95;100.00
39301;BME280;25019;42.626;23.380;2024-02-26T05:51:29;93872.00;;;6.37;100.00
39301;BME280;25019;42.626;23.380;2024-02-26T05:53:54;93880.31;;;6.46;100.00
39301;BME280;25019;42.626;23.380;2024-02-26T05:56:21;93907.09;;;6.67;100.00
39301;BME280;25019;42.626;23.380;2024-02-26T05:58:47;93968.97;;;7.17;100.00
39301;BME280;25019;42.626;23.380;2024-02-26T06:01:14;93877.06;;;6.56;100.00
39301;BME280;25019;42.626;23.380;2024-02-26T06:03:41;93905.28;;;6.67;100.00
39301;BME280;25019;42.626;23.380;2024-02-26T06:06:06;93999.22;;;7.26;100.00
39301;BME280;25019;42.626;23.380;2024-02-26T06:08:32;93978.19;;;7.31;100.00
39301;BME280;25019;42.626;23.380;2024-02-26T06:10:58;93877.19;;;6.61;100.00
39301;BME280;25019;42.626;23.380;2024-02-26T06:13:24;93922.91;;;6.96;100.00
39301;BME280;25019;42.626;23.380;2024-02-26T06:15:50;93963.84;;;7.27;100.00
39301;BME280;25019;42.626;23.380;2024-02-26T06:18:15;93984.78;;;7.46;100.00
39301;BME280;25019;42.626;23.380;2024-02-26T06:20:41;93966.03;;;7.47;100.00
39301;BME280;25019;42.626;23.380;2024-02-26T06:23:07;93970.38;;;7.54;100.00
39301;BME280;25019;42.626;23.380;2024-02-26T06:25:32;93959.34;;;7.57;100.00
39301;BME280;25019;42.626;23.380;2024-02-26T06:27:58;93974.47;;;7.78;100.00
39301;BME280;25019;42.626;23.380;2024-02-26T06:30:24;93957.00;;;7.77;100.00
39301;BME280;25019;42.626;23.380;2024-02-26T06:32:50;93986.72;;;8.02;100.00
39301;BME280;25019;42.626;23.380;2024-02-26T06:35:15;93980.47;;;8.08;100.00
39301;BME280;25019;42.626;23.380;2024-02-26T06:37:41;93986.38;;;8.15;100.00
39301;BME280;25019;42.626;23.380;2024-02-26T06:40:07;93967.97;;;8.03;100.00
39301;BME280;25019;42.626;23.380;2024-02-26T06:42:33;93933.31;;;7.65;100.00
39301;BME280;25019;42.626;23.380;2024-02-26T06:44:58;93992.09;;;7.90;100.00
39301;BME280;25019;42.626;23.380;2024-02-26T06:47:24;93994.81;;;7.95;100.00
39301;BME280;25019;42.626;23.380;2024-02-26T06:49:51;93903.44;;;7.48;100.00
39301;BME280;25019;42.626;23.380;2024-02-26T06:52:17;93989.13;;;8.03;100.00
39301;BME280;25019;42.626;23.380;2024-02-26T06:54:42;93985.16;;;8.23;100.00
39301;BME280;25019;42.626;23.380;2024-02-26T06:57:08;93970.16;;;8.29;100.00
39301;BME280;25019;42.626;23.380;2024-02-26T06:59:34;93920.91;;;8.05;100.00
39301;BME280;25019;42.626;23.380;2024-02-26T07:02:00;93975.91;;;8.43;100.00
39301;BME280;25019;42.626;23.380;2024-02-26T07:04:25;93960.59;;;8.45;100.00
39301;BME280;25019;42.626;23.380;2024-02-26T07:06:51;93982.31;;;8.64;100.00
39301;BME280;25019;42.626;23.380;2024-02-26T07:09:17;93989.56;;;8.74;100.00
39301;BME280;25019;42.626;23.380;2024-02-26T07:11:43;93961.34;;;8.62;100.00
39301;BME280;25019;42.626;23.380;2024-02-26T07:14:09;93992.25;;;8.79;100.00
39301;BME280;25019;42.626;23.380;2024-02-26T07:16:36;93951.34;;;8.47;100.00
39301;BME280;25019;42.626;23.380;2024-02-26T07:19:03;93902.09;;;8.24;100.00
39301;BME280;25019;42.626;23.380;2024-02-26T07:21:29;93993.91;;;8.85;100.00
39301;BME280;25019;42.626;23.380;2024-02-26T07:23:54;93909.50;;;8.44;100.00
39301;BME280;25019;42.626;23.380;2024-02-26T07:26:20;93913.09;;;8.55;100.00
39301;BME280;25019;42.626;23.380;2024-02-26T07:28:46;93923.66;;;8.77;100.00
39301;BME280;25019;42.626;23.380;2024-02-26T07:31:12;93926.44;;;8.88;100.00
39301;BME280;25019;42.626;23.380;2024-02-26T07:33:38;93925.94;;;8.91;100.00
39301;BME280;25019;42.626;23.380;2024-02-26T07:36:04;93962.66;;;9.37;100.00
39301;BME280;25019;42.626;23.380;2024-02-26T07:38:29;93902.25;;;9.06;100.00
39301;BME280;25019;42.626;23.380;2024-02-26T07:40:55;94000.97;;;9.84;100.00
39301;BME280;25019;42.626;23.380;2024-02-26T07:43:22;94010.59;;;9.90;100.00
39301;BME280;25019;42.626;23.380;2024-02-26T07:45:48;93931.44;;;9.44;100.00
39301;BME280;25019;42.626;23.380;2024-02-26T07:48:13;93906.13;;;9.26;100.00
39301;BME280;25019;42.626;23.380;2024-02-26T07:50:39;93994.44;;;9.97;100.00
39301;BME280;25019;42.626;23.380;2024-02-26T07:53:06;93924.19;;;9.67;100.00
39301;BME280;25019;42.626;23.380;2024-02-26T07:55:31;93943.19;;;9.86;100.00
39301;BME280;25019;42.626;23.380;2024-02-26T07:57:57;93928.72;;;9.66;100.00
39301;BME280;25019;42.626;23.380;2024-02-26T08:00:23;93917.78;;;9.57;100.00
39301;BME280;25019;42.626;23.380;2024-02-26T08:02:48;93980.50;;;10.12;100.00
39301;BME280;25019;42.626;23.380;2024-02-26T08:05:14;94001.53;;;10.24;100.00
39301;BME280;25019;42.626;23.380;2024-02-26T08:07:40;93883.31;;;9.57;100.00
39301;BME280;25019;42.626;23.380;2024-02-26T08:10:06;93988.06;;;10.35;100.00
39301;BME280;25019;42.626;23.380;2024-02-26T08:12:32;93922.25;;;9.89;100.00
39301;BME280;25019;42.626;23.380;2024-02-26T08:14:59;93929.47;;;9.99;100.00
39301;BME280;25019;42.626;23.380;2024-02-26T08:17:25;93993.81;;;10.60;100.00
39301;BME280;25019;42.626;23.380;2024-02-26T08:20:09;93949.97;;;10.52;100.00
39301;BME280;25019;42.626;23.380;2024-02-26T08:22:35;93988.34;;;10.82;100.00
39301;BME280;25019;42.626;23.380;2024-02-26T08:25:02;93939.41;;;10.68;100.00
39301;BME280;25019;42.626;23.380;2024-02-26T08:27:32;93988.19;;;11.30;100.00
39301;BME280;25019;42.626;23.380;2024-02-26T08:29:57;93983.69;;;11.26;100.00
39301;BME280;25019;42.626;23.380;2024-02-26T08:32:23;93978.13;;;11.37;99.85
39301;BME280;25019;42.626;23.380;2024-02-26T08:34:49;93864.84;;;10.90;99.05
39301;BME280;25019;42.626;23.380;2024-02-26T08:37:15;93974.69;;;11.52;97.67
39301;BME280;25019;42.626;23.380;2024-02-26T08:39:40;93975.50;;;11.74;97.25
39301;BME280;25019;42.626;23.380;2024-02-26T08:42:06;93924.41;;;11.20;95.36
39301;BME280;25019;42.626;23.380;2024-02-26T08:44:32;93916.19;;;11.37;95.02
39301;BME280;25019;42.626;23.380;2024-02-26T08:46:58;93935.06;;;11.51;94.09
39301;BME280;25019;42.626;23.380;2024-02-26T08:49:24;93981.13;;;12.03;93.19
39301;BME280;25019;42.626;23.380;2024-02-26T08:51:50;93869.41;;;11.41;92.92
39301;BME280;25019;42.626;23.380;2024-02-26T08:54:15;93931.34;;;11.67;92.64
39301;BME280;25019;42.626;23.380;2024-02-26T08:56:42;93896.50;;;11.43;92.77
39301;BME280;25019;42.626;23.380;2024-02-26T08:59:08;93979.53;;;12.18;93.56
39301;BME280;25019;42.626;23.380;2024-02-26T09:01:34;93972.84;;;12.31;91.16
39301;BME280;25019;42.626;23.380;2024-02-26T09:04:00;93903.94;;;11.82;91.37
39301;BME280;25019;42.626;23.380;2024-02-26T09:06:25;93909.25;;;11.77;90.83
39301;BME280;25019;42.626;23.380;2024-02-26T09:08:51;93920.44;;;11.59;90.61
39301;BME280;25019;42.626;23.380;2024-02-26T09:11:17;93969.94;;;11.96;91.71
39301;BME280;25019;42.626;23.380;2024-02-26T09:13:43;93934.56;;;11.80;90.29
39301;BME280;25019;42.626;23.380;2024-02-26T09:16:09;93892.22;;;11.73;91.43
39301;BME280;25019;42.626;23.380;2024-02-26T09:18:35;93918.06;;;12.04;90.54
39301;BME280;25019;42.626;23.380;2024-02-26T09:21:04;93927.34;;;12.11;89.21
39301;BME280;25019;42.626;23.380;2024-02-26T09:23:31;93896.22;;;11.96;88.59
39301;BME280;25019;42.626;23.380;2024-02-26T09:25:57;93938.25;;;12.20;89.09
39301;BME280;25019;42.626;23.380;2024-02-26T09:28:23;93973.38;;;12.38;88.89
39301;BME280;25019;42.626;23.380;2024-02-26T09:30:49;93894.91;;;11.89;87.77
39301;BME280;25019;42.626;23.380;2024-02-26T09:33:15;93908.41;;;12.23;87.16
39301;BME280;25019;42.626;23.380;2024-02-26T09:35:41;93962.88;;;12.78;86.41
39301;BME280;25019;42.626;23.380;2024-02-26T09:38:07;93871.97;;;12.13;86.21
39301;BME280;25019;42.626;23.380;2024-02-26T09:40:33;93940.22;;;12.75;86.46
39301;BME280;25019;42.626;23.380;2024-02-26T09:43:00;93884.59;;;12.58;85.59
39301;BME280;25019;42.626;23.380;2024-02-26T09:45:28;93912.72;;;12.85;84.66
39301;BME280;25019;42.626;23.380;2024-02-26T09:47:55;93909.84;;;12.71;84.12
39301;BME280;25019;42.626;23.380;2024-02-26T09:50:21;93927.63;;;12.86;83.84
39301;BME280;25019;42.626;23.380;2024-02-26T09:52:48;93913.53;;;12.80;83.23
39301;BME280;25019;42.626;23.380;2024-02-26T09:55:15;93960.44;;;13.37;82.30
39301;BME280;25019;42.626;23.380;2024-02-26T09:57:48;93970.19;;;13.57;81.56
39301;BME280;25019;42.626;23.380;2024-02-26T10:00:21;93823.28;;;12.68;79.73
39301;BME280;25019;42.626;23.380;2024-02-26T10:02:48;93865.75;;;12.99;79.04
39301;BME280;25019;42.626;23.380;2024-02-26T10:05:16;93970.38;;;13.71;79.21
39301;BME280;25019;42.626;23.380;2024-02-26T10:07:44;93878.41;;;13.18;78.84
39301;BME280;25019;42.626;23.380;2024-02-26T10:10:11;93898.53;;;13.40;77.81
39301;BME280;25019;42.626;23.380;2024-02-26T10:12:36;93927.91;;;13.34;79.29
39301;BME280;25019;42.626;23.380;2024-02-26T10:15:02;93939.56;;;13.49;79.15
39301;BME280;25019;42.626;23.380;2024-02-26T10:17:28;93906.34;;;13.26;79.42
39301;BME280;25019;42.626;23.380;2024-02-26T10:19:54;93960.72;;;13.35;79.89
39301;BME280;25019;42.626;23.380;2024-02-26T10:22:22;93908.03;;;13.16;80.16
39301;BME280;25019;42.626;23.380;2024-02-26T10:24:48;93806.69;;;12.82;79.66
39301;BME280;25019;42.626;23.380;2024-02-26T10:27:14;93875.56;;;13.04;78.87
39301;BME280;25019;42.626;23.380;2024-02-26T10:29:40;93914.81;;;13.38;78.47
39301;BME280;25019;42.626;23.380;2024-02-26T10:32:09;93882.59;;;13.34;77.61
39301;BME280;25019;42.626;23.380;2024-02-26T10:34:36;93873.78;;;13.34;77.04
39301;BME280;25019;42.626;23.380;2024-02-26T10:37:05;93829.66;;;12.72;76.98
39301;BME280;25019;42.626;23.380;2024-02-26T10:39:30;93861.81;;;12.86;77.47
39301;BME280;25019;42.626;23.380;2024-02-26T10:41:56;93827.34;;;12.55;78.90
39301;BME280;25019;42.626;23.380;2024-02-26T10:44:22;93925.53;;;13.28;79.00
39301;BME280;25019;42.626;23.380;2024-02-26T10:46:47;93833.09;;;12.73;77.13
39301;BME280;25019;42.626;23.380;2024-02-26T10:49:17;93916.19;;;13.36;77.84
39301;BME280;25019;42.626;23.380;2024-02-26T10:51:45;93903.63;;;13.36;78.05
39301;BME280;25019;42.626;23.380;2024-02-26T10:54:16;93886.25;;;13.39;77.46
39301;BME280;25019;42.626;23.380;2024-02-26T10:56:42;93817.94;;;13.13;76.51
39301;BME280;25019;42.626;23.380;2024-02-26T10:59:11;93899.28;;;13.85;75.57
39301;BME280;25019;42.626;23.380;2024-02-26T11:01:39;93836.66;;;13.43;74.72
39301;BME280;25019;42.626;23.380;2024-02-26T11:04:08;93821.72;;;13.42;73.83
39301;BME280;25019;42.626;23.380;2024-02-26T11:06:35;93814.88;;;13.30;73.52
39301;BME280;25019;42.626;23.380;2024-02-26T11:09:02;93901.75;;;13.76;74.04
39301;BME280;25019;42.626;23.380;2024-02-26T11:11:32;93896.44;;;14.01;73.13
39301;BME280;25019;42.626;23.380;2024-02-26T11:14:01;93864.16;;;13.73;72.54
39301;BME280;25019;42.626;23.380;2024-02-26T11:16:27;93900.84;;;14.16;72.37
39301;BME280;25019;42.626;23.380;2024-02-26T11:18:53;93796.84;;;13.52;72.64
39301;BME280;25019;42.626;23.380;2024-02-26T11:21:21;93841.03;;;13.63;73.19
39301;BME280;25019;42.626;23.380;2024-02-26T11:23:56;93895.75;;;14.19;72.89
39301;BME280;25019;42.626;23.380;2024-02-26T11:26:23;93876.06;;;14.10;71.67
39301;BME280;25019;42.626;23.380;2024-02-26T11:28:51;93887.66;;;14.24;71.33
39301;BME280;25019;42.626;23.380;2024-02-26T11:31:17;93777.22;;;13.67;70.90
39301;BME280;25019;42.626;23.380;2024-02-26T11:33:51;93888.59;;;14.39;70.04
39301;BME280;25019;42.626;23.380;2024-02-26T11:36:17;93789.97;;;13.99;69.82
39301;BME280;25019;42.626;23.380;2024-02-26T11:38:43;93829.47;;;14.46;69.68
39301;BME280;25019;42.626;23.380;2024-02-26T11:41:09;93833.50;;;14.43;68.62
39301;BME280;25019;42.626;23.380;2024-02-26T11:44:05;93888.94;;;14.81;68.28
39301;BME280;25019;42.626;23.380;2024-02-26T11:46:33;93896.72;;;14.96;67.51
39301;BME280;25019;42.626;23.380;2024-02-26T11:51:57;93829.41;;;14.51;66.36
39301;BME280;25019;42.626;23.380;2024-02-26T11:57:21;93862.16;;;14.37;67.14
39301;BME280;25019;42.626;23.380;2024-02-26T11:59:47;93891.84;;;14.60;66.96
39301;BME280;25019;42.626;23.380;2024-02-26T12:02:45;93886.44;;;14.41;67.52
39301;BME280;25019;42.626;23.380;2024-02-26T12:05:16;93863.81;;;14.09;68.95
39301;BME280;25019;42.626;23.380;2024-02-26T12:07:50;93822.50;;;14.01;68.44
39301;BME280;25019;42.626;23.380;2024-02-26T12:15:35;93855.41;;;14.64;66.26
39301;BME280;25019;42.626;23.380;2024-02-26T12:18:05;93850.28;;;14.73;65.21
39301;BME280;25019;42.626;23.380;2024-02-26T12:20:31;93784.34;;;14.44;64.48
39301;BME280;25019;42.626;23.380;2024-02-26T12:22:58;93895.16;;;15.15;64.07
39301;BME280;25019;42.626;23.380;2024-02-26T12:25:26;93677.44;;;13.87;63.54
39301;BME280;25019;42.626;23.380;2024-02-26T12:27:54;93751.53;;;14.38;63.10
39301;BME280;25019;42.626;23.380;2024-02-26T12:30:20;93868.41;;;14.95;63.84
39301;BME280;25019;42.626;23.380;2024-02-26T12:32:50;93840.88;;;14.76;63.73
39301;BME280;25019;42.626;23.380;2024-02-26T12:35:17;93856.56;;;14.82;63.67
39301;BME280;25019;42.626;23.380;2024-02-26T12:37:43;93875.50;;;15.05;63.02
39301;BME280;25019;42.626;23.380;2024-02-26T12:40:10;93887.44;;;15.32;62.07
39301;BME280;25019;42.626;23.380;2024-02-26T12:42:36;93909.22;;;15.58;61.14
39301;BME280;25019;42.626;23.380;2024-02-26T12:45:11;93846.69;;;15.35;60.46
39301;BME280;25019;42.626;23.380;2024-02-26T12:47:44;93813.63;;;15.31;59.83
39301;BME280;25019;42.626;23.380;2024-02-26T12:50:11;93827.19;;;15.35;59.16
39301;BME280;25019;42.626;23.380;2024-02-26T12:52:44;93863.88;;;15.48;59.15
39301;BME280;25019;42.626;23.380;2024-02-26T12:55:16;93863.69;;;15.45;59.52
39301;BME280;25019;42.626;23.380;2024-02-26T12:57:43;93750.91;;;14.66;59.22
39301;BME280;25019;42.626;23.380;2024-02-26T13:00:12;93793.78;;;14.99;59.27
39301;BME280;25019;42.626;23.380;2024-02-26T13:02:40;93846.31;;;15.09;59.26